54°F Temp
48°F Dewpoint
82% Humidity
Temperature
6 MPH
10 KM/H
5 KTS
320°
North West

Wind Speed
Partly Cloudy
Conditions
Pressure 1016.22 (hPa) - 30.01 (in)
Visibility 9.9 (mi) - 16.0 (km)

Current Conditions
KSJC
Location 9(mi)
Metar :KSJC 140653Z 32005KT 10SM FEW006 SCT009 BKN012 12/09 A3001 RMK AO2 SLP161 LAST T01220094
Thu 13th May 22:53 pm

Airport
  Metar Aviation API Data Provided by https://www.checkwx.com/ PHP scripts by weather34.com ©2021